sensor_id;sensor_type;location;lat;lon;timestamp;P1;durP1;ratioP1;P2;durP2;ratioP2
19026;SDS011;9646;52.034;5.554;2023-03-26T00:00:49;9.85;;;2.95;;
19026;SDS011;9646;52.034;5.554;2023-03-26T00:03:18;9.73;;;2.63;;
19026;SDS011;9646;52.034;5.554;2023-03-26T00:05:46;10.63;;;2.60;;
19026;SDS011;9646;52.034;5.554;2023-03-26T00:08:14;11.25;;;3.03;;
19026;SDS011;9646;52.034;5.554;2023-03-26T00:10:41;10.75;;;3.17;;
19026;SDS011;9646;52.034;5.554;2023-03-26T00:13:09;10.35;;;3.28;;
19026;SDS011;9646;52.034;5.554;2023-03-26T00:15:36;13.23;;;2.92;;
19026;SDS011;9646;52.034;5.554;2023-03-26T00:18:06;12.13;;;3.00;;
19026;SDS011;9646;52.034;5.554;2023-03-26T00:20:34;10.48;;;2.30;;
19026;SDS011;9646;52.034;5.554;2023-03-26T00:23:02;12.30;;;2.88;;
19026;SDS011;9646;52.034;5.554;2023-03-26T00:25:30;12.25;;;3.10;;
19026;SDS011;9646;52.034;5.554;2023-03-26T00:27:58;12.95;;;3.20;;
19026;SDS011;9646;52.034;5.554;2023-03-26T00:30:26;13.50;;;3.60;;
19026;SDS011;9646;52.034;5.554;2023-03-26T00:32:53;9.75;;;2.83;;
19026;SDS011;9646;52.034;5.554;2023-03-26T00:35:21;11.40;;;3.25;;
19026;SDS011;9646;52.034;5.554;2023-03-26T00:37:48;22.50;;;5.00;;
19026;SDS011;9646;52.034;5.554;2023-03-26T00:40:17;16.90;;;4.13;;
19026;SDS011;9646;52.034;5.554;2023-03-26T00:42:44;17.27;;;3.67;;
19026;SDS011;9646;52.034;5.554;2023-03-26T00:45:11;14.38;;;3.47;;
19026;SDS011;9646;52.034;5.554;2023-03-26T00:47:38;18.38;;;4.63;;
19026;SDS011;9646;52.034;5.554;2023-03-26T00:50:07;22.38;;;4.82;;
19026;SDS011;9646;52.034;5.554;2023-03-26T00:52:40;17.67;;;4.43;;
19026;SDS011;9646;52.034;5.554;2023-03-26T00:55:08;23.63;;;5.30;;
19026;SDS011;9646;52.034;5.554;2023-03-26T00:57:35;27.63;;;4.70;;
19026;SDS011;9646;52.034;5.554;2023-03-26T01:00:03;19.73;;;4.60;;
19026;SDS011;9646;52.034;5.554;2023-03-26T01:02:40;23.65;;;5.20;;
19026;SDS011;9646;52.034;5.554;2023-03-26T01:07:56;22.30;;;5.30;;
19026;SDS011;9646;52.034;5.554;2023-03-26T01:10:23;20.05;;;4.82;;
19026;SDS011;9646;52.034;5.554;2023-03-26T01:12:50;20.38;;;5.07;;
19026;SDS011;9646;52.034;5.554;2023-03-26T01:15:17;20.08;;;5.00;;
19026;SDS011;9646;52.034;5.554;2023-03-26T01:17:46;20.35;;;4.57;;
19026;SDS011;9646;52.034;5.554;2023-03-26T01:20:17;25.13;;;5.43;;
19026;SDS011;9646;52.034;5.554;2023-03-26T01:22:46;20.08;;;5.05;;
19026;SDS011;9646;52.034;5.554;2023-03-26T01:25:16;19.33;;;4.72;;
19026;SDS011;9646;52.034;5.554;2023-03-26T01:27:44;22.48;;;5.20;;
19026;SDS011;9646;52.034;5.554;2023-03-26T01:30:15;25.05;;;5.40;;
19026;SDS011;9646;52.034;5.554;2023-03-26T01:32:49;27.30;;;5.43;;
19026;SDS011;9646;52.034;5.554;2023-03-26T01:35:20;20.00;;;5.00;;
19026;SDS011;9646;52.034;5.554;2023-03-26T01:37:53;24.90;;;5.25;;
19026;SDS011;9646;52.034;5.554;2023-03-26T01:40:28;21.75;;;5.13;;
19026;SDS011;9646;52.034;5.554;2023-03-26T01:43:08;18.13;;;5.65;;
19026;SDS011;9646;52.034;5.554;2023-03-26T01:45:37;19.73;;;4.95;;
19026;SDS011;9646;52.034;5.554;2023-03-26T01:48:05;20.38;;;4.80;;
19026;SDS011;9646;52.034;5.554;2023-03-26T01:50:32;22.73;;;4.90;;
19026;SDS011;9646;52.034;5.554;2023-03-26T01:52:59;25.38;;;5.70;;
19026;SDS011;9646;52.034;5.554;2023-03-26T01:55:31;16.88;;;4.75;;
19026;SDS011;9646;52.034;5.554;2023-03-26T01:58:02;22.20;;;4.97;;
19026;SDS011;9646;52.034;5.554;2023-03-26T02:00:36;14.80;;;3.83;;
19026;SDS011;9646;52.034;5.554;2023-03-26T02:03:10;18.90;;;4.13;;
19026;SDS011;9646;52.034;5.554;2023-03-26T02:05:44;21.45;;;4.70;;
19026;SDS011;9646;52.034;5.554;2023-03-26T02:08:15;18.42;;;4.75;;
19026;SDS011;9646;52.034;5.554;2023-03-26T02:10:48;19.58;;;4.38;;
19026;SDS011;9646;52.034;5.554;2023-03-26T02:13:17;21.67;;;5.38;;
19026;SDS011;9646;52.034;5.554;2023-03-26T02:15:53;14.18;;;4.05;;
19026;SDS011;9646;52.034;5.554;2023-03-26T02:18:20;15.95;;;4.70;;
19026;SDS011;9646;52.034;5.554;2023-03-26T02:20:48;25.30;;;4.90;;
19026;SDS011;9646;52.034;5.554;2023-03-26T02:23:17;22.45;;;4.65;;
19026;SDS011;9646;52.034;5.554;2023-03-26T02:25:44;21.13;;;4.60;;
19026;SDS011;9646;52.034;5.554;2023-03-26T02:28:12;22.80;;;4.60;;
19026;SDS011;9646;52.034;5.554;2023-03-26T02:30:41;26.95;;;5.40;;
19026;SDS011;9646;52.034;5.554;2023-03-26T02:33:09;17.13;;;4.60;;
19026;SDS011;9646;52.034;5.554;2023-03-26T02:35:39;18.00;;;4.88;;
19026;SDS011;9646;52.034;5.554;2023-03-26T02:38:09;23.42;;;4.68;;
19026;SDS011;9646;52.034;5.554;2023-03-26T02:40:38;21.42;;;5.40;;
19026;SDS011;9646;52.034;5.554;2023-03-26T02:43:05;25.95;;;6.50;;
19026;SDS011;9646;52.034;5.554;2023-03-26T02:45:34;22.52;;;5.60;;
19026;SDS011;9646;52.034;5.554;2023-03-26T02:48:01;22.23;;;4.90;;
19026;SDS011;9646;52.034;5.554;2023-03-26T02:50:28;22.60;;;5.07;;
19026;SDS011;9646;52.034;5.554;2023-03-26T02:52:56;29.92;;;7.25;;
19026;SDS011;9646;52.034;5.554;2023-03-26T02:55:23;23.17;;;6.07;;
19026;SDS011;9646;52.034;5.554;2023-03-26T02:57:51;34.17;;;7.15;;
19026;SDS011;9646;52.034;5.554;2023-03-26T03:00:18;30.73;;;7.03;;
19026;SDS011;9646;52.034;5.554;2023-03-26T03:02:48;22.83;;;5.35;;
19026;SDS011;9646;52.034;5.554;2023-03-26T03:05:16;23.92;;;5.20;;
19026;SDS011;9646;52.034;5.554;2023-03-26T03:07:43;29.48;;;7.18;;
19026;SDS011;9646;52.034;5.554;2023-03-26T03:10:11;29.45;;;6.82;;
19026;SDS011;9646;52.034;5.554;2023-03-26T03:12:39;21.80;;;5.25;;
19026;SDS011;9646;52.034;5.554;2023-03-26T03:15:07;24.73;;;5.40;;
19026;SDS011;9646;52.034;5.554;2023-03-26T03:17:34;25.42;;;5.75;;
19026;SDS011;9646;52.034;5.554;2023-03-26T03:20:03;26.77;;;6.55;;
19026;SDS011;9646;52.034;5.554;2023-03-26T03:22:33;23.75;;;5.88;;
19026;SDS011;9646;52.034;5.554;2023-03-26T03:25:00;21.92;;;5.35;;
19026;SDS011;9646;52.034;5.554;2023-03-26T03:27:27;18.45;;;4.68;;
19026;SDS011;9646;52.034;5.554;2023-03-26T03:29:54;17.80;;;5.45;;
19026;SDS011;9646;52.034;5.554;2023-03-26T03:32:23;22.52;;;6.55;;
19026;SDS011;9646;52.034;5.554;2023-03-26T03:34:50;22.05;;;6.07;;
19026;SDS011;9646;52.034;5.554;2023-03-26T03:37:18;23.33;;;6.43;;
19026;SDS011;9646;52.034;5.554;2023-03-26T03:39:46;18.98;;;5.63;;
19026;SDS011;9646;52.034;5.554;2023-03-26T03:42:13;22.23;;;6.00;;
19026;SDS011;9646;52.034;5.554;2023-03-26T03:44:40;16.85;;;5.78;;
19026;SDS011;9646;52.034;5.554;2023-03-26T03:47:07;24.55;;;6.15;;
19026;SDS011;9646;52.034;5.554;2023-03-26T03:49:37;29.40;;;7.30;;
19026;SDS011;9646;52.034;5.554;2023-03-26T03:52:04;27.20;;;6.72;;
19026;SDS011;9646;52.034;5.554;2023-03-26T03:54:33;23.55;;;6.60;;
19026;SDS011;9646;52.034;5.554;2023-03-26T03:57:00;21.95;;;6.20;;
19026;SDS011;9646;52.034;5.554;2023-03-26T03:59:27;25.38;;;6.95;;
19026;SDS011;9646;52.034;5.554;2023-03-26T04:01:54;17.92;;;5.93;;
19026;SDS011;9646;52.034;5.554;2023-03-26T04:04:21;19.50;;;4.93;;
19026;SDS011;9646;52.034;5.554;2023-03-26T04:06:49;15.85;;;4.97;;
19026;SDS011;9646;52.034;5.554;2023-03-26T04:09:16;17.77;;;4.75;;
19026;SDS011;9646;52.034;5.554;2023-03-26T04:11:45;19.30;;;5.28;;
19026;SDS011;9646;52.034;5.554;2023-03-26T04:14:14;18.63;;;5.18;;
19026;SDS011;9646;52.034;5.554;2023-03-26T04:16:41;14.02;;;3.75;;
19026;SDS011;9646;52.034;5.554;2023-03-26T04:19:08;14.90;;;4.15;;
19026;SDS011;9646;52.034;5.554;2023-03-26T04:21:35;16.20;;;4.57;;
19026;SDS011;9646;52.034;5.554;2023-03-26T04:24:03;20.92;;;5.50;;
19026;SDS011;9646;52.034;5.554;2023-03-26T04:26:31;16.88;;;5.03;;
19026;SDS011;9646;52.034;5.554;2023-03-26T04:29:00;19.63;;;5.05;;
19026;SDS011;9646;52.034;5.554;2023-03-26T04:31:29;20.33;;;5.97;;
19026;SDS011;9646;52.034;5.554;2023-03-26T04:33:58;18.35;;;5.63;;
19026;SDS011;9646;52.034;5.554;2023-03-26T04:36:29;19.00;;;5.82;;
19026;SDS011;9646;52.034;5.554;2023-03-26T04:38:58;17.08;;;5.28;;
19026;SDS011;9646;52.034;5.554;2023-03-26T04:41:29;17.65;;;5.00;;
19026;SDS011;9646;52.034;5.554;2023-03-26T04:43:56;18.67;;;4.90;;
19026;SDS011;9646;52.034;5.554;2023-03-26T04:46:27;20.83;;;5.00;;
19026;SDS011;9646;52.034;5.554;2023-03-26T04:48:57;14.88;;;4.43;;
19026;SDS011;9646;52.034;5.554;2023-03-26T04:51:26;15.40;;;4.57;;
19026;SDS011;9646;52.034;5.554;2023-03-26T04:53:59;16.85;;;5.20;;
19026;SDS011;9646;52.034;5.554;2023-03-26T04:56:29;17.50;;;4.72;;
19026;SDS011;9646;52.034;5.554;2023-03-26T04:58:59;16.23;;;4.60;;
19026;SDS011;9646;52.034;5.554;2023-03-26T05:01:28;16.90;;;4.20;;
19026;SDS011;9646;52.034;5.554;2023-03-26T05:03:56;14.00;;;4.43;;
19026;SDS011;9646;52.034;5.554;2023-03-26T05:06:23;16.70;;;4.70;;
19026;SDS011;9646;52.034;5.554;2023-03-26T05:08:51;13.13;;;3.95;;
19026;SDS011;9646;52.034;5.554;2023-03-26T05:11:19;13.57;;;3.85;;
19026;SDS011;9646;52.034;5.554;2023-03-26T05:13:46;10.50;;;3.40;;
19026;SDS011;9646;52.034;5.554;2023-03-26T05:16:13;10.70;;;4.13;;
19026;SDS011;9646;52.034;5.554;2023-03-26T05:18:41;19.60;;;4.68;;
19026;SDS011;9646;52.034;5.554;2023-03-26T05:21:08;14.80;;;3.97;;
19026;SDS011;9646;52.034;5.554;2023-03-26T05:23:36;15.63;;;3.83;;
19026;SDS011;9646;52.034;5.554;2023-03-26T05:26:03;11.70;;;3.63;;
19026;SDS011;9646;52.034;5.554;2023-03-26T05:28:31;12.18;;;3.38;;
19026;SDS011;9646;52.034;5.554;2023-03-26T05:30:58;16.52;;;3.85;;
19026;SDS011;9646;52.034;5.554;2023-03-26T05:33:26;15.55;;;4.20;;
19026;SDS011;9646;52.034;5.554;2023-03-26T05:36:02;15.40;;;3.67;;
19026;SDS011;9646;52.034;5.554;2023-03-26T05:38:30;19.30;;;3.50;;
19026;SDS011;9646;52.034;5.554;2023-03-26T05:40:57;15.05;;;3.60;;
19026;SDS011;9646;52.034;5.554;2023-03-26T05:43:24;15.20;;;3.58;;
19026;SDS011;9646;52.034;5.554;2023-03-26T05:45:52;15.82;;;3.72;;
19026;SDS011;9646;52.034;5.554;2023-03-26T05:48:19;14.90;;;3.67;;
19026;SDS011;9646;52.034;5.554;2023-03-26T05:50:46;15.70;;;3.58;;
19026;SDS011;9646;52.034;5.554;2023-03-26T05:53:15;14.95;;;3.55;;
19026;SDS011;9646;52.034;5.554;2023-03-26T05:55:42;13.23;;;3.75;;
19026;SDS011;9646;52.034;5.554;2023-03-26T05:58:10;13.85;;;3.90;;
19026;SDS011;9646;52.034;5.554;2023-03-26T06:00:38;13.80;;;4.00;;
19026;SDS011;9646;52.034;5.554;2023-03-26T06:03:05;13.73;;;3.70;;
19026;SDS011;9646;52.034;5.554;2023-03-26T06:05:36;11.40;;;3.63;;
19026;SDS011;9646;52.034;5.554;2023-03-26T06:08:03;12.57;;;3.22;;
19026;SDS011;9646;52.034;5.554;2023-03-26T06:10:32;15.57;;;3.75;;
19026;SDS011;9646;52.034;5.554;2023-03-26T06:12:59;13.05;;;3.63;;
19026;SDS011;9646;52.034;5.554;2023-03-26T06:15:26;12.57;;;3.60;;
19026;SDS011;9646;52.034;5.554;2023-03-26T06:17:53;16.40;;;4.28;;
19026;SDS011;9646;52.034;5.554;2023-03-26T06:20:20;11.98;;;3.67;;
19026;SDS011;9646;52.034;5.554;2023-03-26T06:22:47;12.15;;;3.25;;
19026;SDS011;9646;52.034;5.554;2023-03-26T06:25:14;14.85;;;3.97;;
19026;SDS011;9646;52.034;5.554;2023-03-26T06:27:43;13.40;;;3.50;;
19026;SDS011;9646;52.034;5.554;2023-03-26T06:30:10;16.80;;;4.38;;
19026;SDS011;9646;52.034;5.554;2023-03-26T06:32:37;13.45;;;3.50;;
19026;SDS011;9646;52.034;5.554;2023-03-26T06:35:05;12.07;;;3.38;;
19026;SDS011;9646;52.034;5.554;2023-03-26T06:37:32;12.10;;;3.38;;
19026;SDS011;9646;52.034;5.554;2023-03-26T06:40:00;19.00;;;4.78;;
19026;SDS011;9646;52.034;5.554;2023-03-26T06:42:27;13.55;;;3.88;;
19026;SDS011;9646;52.034;5.554;2023-03-26T06:44:55;10.35;;;2.60;;
19026;SDS011;9646;52.034;5.554;2023-03-26T06:47:22;7.13;;;2.88;;
19026;SDS011;9646;52.034;5.554;2023-03-26T06:49:50;4.72;;;2.40;;
19026;SDS011;9646;52.034;5.554;2023-03-26T06:52:17;7.68;;;2.70;;
19026;SDS011;9646;52.034;5.554;2023-03-26T06:54:44;7.57;;;2.72;;
19026;SDS011;9646;52.034;5.554;2023-03-26T06:57:11;9.63;;;2.83;;
19026;SDS011;9646;52.034;5.554;2023-03-26T06:59:38;8.32;;;2.67;;
19026;SDS011;9646;52.034;5.554;2023-03-26T07:02:08;9.50;;;2.85;;
19026;SDS011;9646;52.034;5.554;2023-03-26T07:04:35;10.05;;;3.20;;
19026;SDS011;9646;52.034;5.554;2023-03-26T07:07:03;10.75;;;2.75;;
19026;SDS011;9646;52.034;5.554;2023-03-26T07:09:30;8.13;;;3.08;;
19026;SDS011;9646;52.034;5.554;2023-03-26T07:11:57;10.48;;;2.88;;
19026;SDS011;9646;52.034;5.554;2023-03-26T07:14:25;10.10;;;3.10;;
19026;SDS011;9646;52.034;5.554;2023-03-26T07:16:54;12.10;;;3.40;;
19026;SDS011;9646;52.034;5.554;2023-03-26T07:19:24;11.32;;;3.05;;
19026;SDS011;9646;52.034;5.554;2023-03-26T07:21:51;6.32;;;2.78;;
19026;SDS011;9646;52.034;5.554;2023-03-26T07:24:18;9.00;;;2.70;;
19026;SDS011;9646;52.034;5.554;2023-03-26T07:26:47;13.25;;;3.28;;
19026;SDS011;9646;52.034;5.554;2023-03-26T07:29:17;11.43;;;2.85;;
19026;SDS011;9646;52.034;5.554;2023-03-26T07:31:47;7.43;;;2.70;;
19026;SDS011;9646;52.034;5.554;2023-03-26T07:34:21;8.65;;;3.38;;
19026;SDS011;9646;52.034;5.554;2023-03-26T07:36:56;12.50;;;3.58;;
19026;SDS011;9646;52.034;5.554;2023-03-26T07:39:32;11.43;;;3.33;;
19026;SDS011;9646;52.034;5.554;2023-03-26T07:42:02;11.40;;;3.00;;
19026;SDS011;9646;52.034;5.554;2023-03-26T07:44:41;13.70;;;3.50;;
19026;SDS011;9646;52.034;5.554;2023-03-26T07:47:16;12.27;;;3.50;;
19026;SDS011;9646;52.034;5.554;2023-03-26T07:49:46;12.38;;;3.10;;
19026;SDS011;9646;52.034;5.554;2023-03-26T07:52:15;10.88;;;3.65;;
19026;SDS011;9646;52.034;5.554;2023-03-26T07:54:42;14.98;;;3.60;;
19026;SDS011;9646;52.034;5.554;2023-03-26T07:57:11;8.38;;;3.28;;
19026;SDS011;9646;52.034;5.554;2023-03-26T07:59:42;13.82;;;3.83;;
19026;SDS011;9646;52.034;5.554;2023-03-26T08:02:17;17.75;;;3.65;;
19026;SDS011;9646;52.034;5.554;2023-03-26T08:04:49;11.02;;;3.47;;
19026;SDS011;9646;52.034;5.554;2023-03-26T08:07:22;11.32;;;3.60;;
19026;SDS011;9646;52.034;5.554;2023-03-26T08:09:57;9.68;;;4.10;;
19026;SDS011;9646;52.034;5.554;2023-03-26T08:12:28;11.85;;;3.50;;
19026;SDS011;9646;52.034;5.554;2023-03-26T08:14:57;11.50;;;3.72;;
19026;SDS011;9646;52.034;5.554;2023-03-26T08:17:27;10.85;;;3.83;;
19026;SDS011;9646;52.034;5.554;2023-03-26T08:20:01;15.35;;;4.35;;
19026;SDS011;9646;52.034;5.554;2023-03-26T08:22:35;12.82;;;4.10;;
19026;SDS011;9646;52.034;5.554;2023-03-26T08:25:18;16.33;;;4.32;;
19026;SDS011;9646;52.034;5.554;2023-03-26T08:27:51;10.43;;;3.97;;
19026;SDS011;9646;52.034;5.554;2023-03-26T08:30:20;9.52;;;3.05;;
19026;SDS011;9646;52.034;5.554;2023-03-26T08:32:48;15.15;;;3.30;;
19026;SDS011;9646;52.034;5.554;2023-03-26T08:35:18;14.20;;;3.90;;
19026;SDS011;9646;52.034;5.554;2023-03-26T08:37:46;15.18;;;4.57;;
19026;SDS011;9646;52.034;5.554;2023-03-26T08:40:15;16.55;;;4.55;;
19026;SDS011;9646;52.034;5.554;2023-03-26T08:48:31;18.70;;;4.53;;
19026;SDS011;9646;52.034;5.554;2023-03-26T08:53:59;11.02;;;3.97;;
19026;SDS011;9646;52.034;5.554;2023-03-26T08:56:31;12.93;;;4.13;;
19026;SDS011;9646;52.034;5.554;2023-03-26T09:04:46;17.27;;;4.28;;
19026;SDS011;9646;52.034;5.554;2023-03-26T09:07:28;10.93;;;4.18;;
19026;SDS011;9646;52.034;5.554;2023-03-26T09:10:08;12.02;;;4.38;;
19026;SDS011;9646;52.034;5.554;2023-03-26T09:12:43;12.90;;;4.07;;
19026;SDS011;9646;52.034;5.554;2023-03-26T09:15:23;8.73;;;3.88;;
19026;SDS011;9646;52.034;5.554;2023-03-26T09:20:47;9.75;;;3.85;;
19026;SDS011;9646;52.034;5.554;2023-03-26T09:23:24;10.48;;;4.60;;
19026;SDS011;9646;52.034;5.554;2023-03-26T09:26:08;11.63;;;3.75;;
19026;SDS011;9646;52.034;5.554;2023-03-26T09:28:47;13.35;;;4.07;;
19026;SDS011;9646;52.034;5.554;2023-03-26T09:31:27;13.05;;;3.90;;
19026;SDS011;9646;52.034;5.554;2023-03-26T09:34:05;8.30;;;3.40;;
19026;SDS011;9646;52.034;5.554;2023-03-26T09:36:40;9.55;;;3.72;;
19026;SDS011;9646;52.034;5.554;2023-03-26T09:39:12;9.23;;;3.60;;
19026;SDS011;9646;52.034;5.554;2023-03-26T09:41:47;9.80;;;3.40;;
19026;SDS011;9646;52.034;5.554;2023-03-26T09:47:20;13.25;;;4.55;;
19026;SDS011;9646;52.034;5.554;2023-03-26T09:49:50;10.85;;;4.32;;
19026;SDS011;9646;52.034;5.554;2023-03-26T09:52:29;11.90;;;3.80;;
19026;SDS011;9646;52.034;5.554;2023-03-26T09:57:52;8.95;;;4.28;;
19026;SDS011;9646;52.034;5.554;2023-03-26T10:00:25;13.68;;;5.13;;
19026;SDS011;9646;52.034;5.554;2023-03-26T10:03:05;13.98;;;4.80;;
19026;SDS011;9646;52.034;5.554;2023-03-26T10:05:38;12.63;;;4.82;;
19026;SDS011;9646;52.034;5.554;2023-03-26T10:08:25;9.48;;;4.72;;
19026;SDS011;9646;52.034;5.554;2023-03-26T10:10:55;13.43;;;5.15;;
19026;SDS011;9646;52.034;5.554;2023-03-26T10:13:26;13.73;;;5.80;;
19026;SDS011;9646;52.034;5.554;2023-03-26T10:15:59;10.95;;;5.75;;
19026;SDS011;9646;52.034;5.554;2023-03-26T10:18:32;7.10;;;4.28;;
19026;SDS011;9646;52.034;5.554;2023-03-26T10:21:02;8.93;;;4.38;;
19026;SDS011;9646;52.034;5.554;2023-03-26T10:26:24;8.52;;;4.45;;
19026;SDS011;9646;52.034;5.554;2023-03-26T10:29:02;10.23;;;5.78;;
19026;SDS011;9646;52.034;5.554;2023-03-26T10:31:39;9.80;;;4.70;;
19026;SDS011;9646;52.034;5.554;2023-03-26T10:34:13;8.65;;;4.88;;
19026;SDS011;9646;52.034;5.554;2023-03-26T10:36:42;8.55;;;5.18;;
19026;SDS011;9646;52.034;5.554;2023-03-26T10:39:20;9.82;;;6.38;;
19026;SDS011;9646;52.034;5.554;2023-03-26T10:41:54;9.52;;;5.25;;
19026;SDS011;9646;52.034;5.554;2023-03-26T10:47:16;8.15;;;4.78;;
19026;SDS011;9646;52.034;5.554;2023-03-26T10:52:40;6.60;;;3.85;;
19026;SDS011;9646;52.034;5.554;2023-03-26T10:55:10;5.05;;;3.38;;
19026;SDS011;9646;52.034;5.554;2023-03-26T10:57:40;9.00;;;4.30;;
19026;SDS011;9646;52.034;5.554;2023-03-26T11:00:14;9.55;;;5.15;;
19026;SDS011;9646;52.034;5.554;2023-03-26T11:02:45;7.07;;;4.63;;
19026;SDS011;9646;52.034;5.554;2023-03-26T11:08:01;9.40;;;5.53;;
19026;SDS011;9646;52.034;5.554;2023-03-26T11:10:32;10.00;;;5.13;;
19026;SDS011;9646;52.034;5.554;2023-03-26T11:13:02;6.90;;;3.47;;
19026;SDS011;9646;52.034;5.554;2023-03-26T11:15:34;7.28;;;3.90;;
19026;SDS011;9646;52.034;5.554;2023-03-26T11:18:07;12.80;;;5.07;;
19026;SDS011;9646;52.034;5.554;2023-03-26T11:20:37;9.30;;;5.15;;
19026;SDS011;9646;52.034;5.554;2023-03-26T11:23:10;9.25;;;4.68;;
19026;SDS011;9646;52.034;5.554;2023-03-26T11:25:43;10.13;;;4.80;;
19026;SDS011;9646;52.034;5.554;2023-03-26T11:28:16;6.82;;;3.40;;
19026;SDS011;9646;52.034;5.554;2023-03-26T11:30:47;11.35;;;5.03;;
19026;SDS011;9646;52.034;5.554;2023-03-26T11:33:22;6.13;;;3.45;;
19026;SDS011;9646;52.034;5.554;2023-03-26T11:35:51;6.30;;;3.17;;
19026;SDS011;9646;52.034;5.554;2023-03-26T11:38:22;7.75;;;3.20;;
19026;SDS011;9646;52.034;5.554;2023-03-26T11:40:51;7.60;;;3.70;;
19026;SDS011;9646;52.034;5.554;2023-03-26T11:43:20;6.82;;;3.40;;
19026;SDS011;9646;52.034;5.554;2023-03-26T11:45:48;4.20;;;3.15;;
19026;SDS011;9646;52.034;5.554;2023-03-26T11:48:18;33.63;;;20.33;;
19026;SDS011;9646;52.034;5.554;2023-03-26T11:50:50;9.63;;;5.68;;
19026;SDS011;9646;52.034;5.554;2023-03-26T11:53:19;7.50;;;3.47;;
19026;SDS011;9646;52.034;5.554;2023-03-26T11:55:50;5.22;;;2.72;;
19026;SDS011;9646;52.034;5.554;2023-03-26T11:58:25;5.40;;;2.58;;
19026;SDS011;9646;52.034;5.554;2023-03-26T12:00:54;7.20;;;2.75;;
19026;SDS011;9646;52.034;5.554;2023-03-26T12:03:21;8.10;;;2.58;;
19026;SDS011;9646;52.034;5.554;2023-03-26T12:05:49;8.32;;;2.50;;
19026;SDS011;9646;52.034;5.554;2023-03-26T12:08:19;5.90;;;2.53;;
19026;SDS011;9646;52.034;5.554;2023-03-26T12:10:50;6.60;;;2.58;;
19026;SDS011;9646;52.034;5.554;2023-03-26T12:13:27;10.25;;;3.15;;
19026;SDS011;9646;52.034;5.554;2023-03-26T12:15:57;5.43;;;2.25;;
19026;SDS011;9646;52.034;5.554;2023-03-26T12:18:26;7.32;;;2.63;;
19026;SDS011;9646;52.034;5.554;2023-03-26T12:21:04;6.80;;;2.70;;
19026;SDS011;9646;52.034;5.554;2023-03-26T12:23:37;6.35;;;2.50;;
19026;SDS011;9646;52.034;5.554;2023-03-26T12:26:12;5.30;;;2.05;;
19026;SDS011;9646;52.034;5.554;2023-03-26T12:28:42;8.93;;;3.22;;
19026;SDS011;9646;52.034;5.554;2023-03-26T12:31:10;6.57;;;2.60;;
19026;SDS011;9646;52.034;5.554;2023-03-26T12:33:42;8.88;;;2.67;;
19026;SDS011;9646;52.034;5.554;2023-03-26T12:36:16;6.43;;;2.40;;
19026;SDS011;9646;52.034;5.554;2023-03-26T12:38:46;10.68;;;3.00;;
19026;SDS011;9646;52.034;5.554;2023-03-26T12:41:14;6.72;;;2.50;;
19026;SDS011;9646;52.034;5.554;2023-03-26T12:43:43;8.27;;;2.78;;
19026;SDS011;9646;52.034;5.554;2023-03-26T12:46:22;9.82;;;2.63;;
19026;SDS011;9646;52.034;5.554;2023-03-26T12:48:50;7.45;;;2.63;;
19026;SDS011;9646;52.034;5.554;2023-03-26T12:51:19;8.98;;;2.67;;
19026;SDS011;9646;52.034;5.554;2023-03-26T12:53:55;5.22;;;2.42;;
19026;SDS011;9646;52.034;5.554;2023-03-26T12:56:25;11.02;;;3.35;;
19026;SDS011;9646;52.034;5.554;2023-03-26T12:59:04;6.00;;;2.40;;
19026;SDS011;9646;52.034;5.554;2023-03-26T13:01:38;6.78;;;2.60;;
19026;SDS011;9646;52.034;5.554;2023-03-26T13:04:12;7.40;;;3.17;;
19026;SDS011;9646;52.034;5.554;2023-03-26T13:06:41;7.90;;;2.95;;
19026;SDS011;9646;52.034;5.554;2023-03-26T13:09:18;8.38;;;3.28;;
19026;SDS011;9646;52.034;5.554;2023-03-26T13:11:50;11.40;;;3.60;;
19026;SDS011;9646;52.034;5.554;2023-03-26T13:14:25;15.82;;;7.88;;
19026;SDS011;9646;52.034;5.554;2023-03-26T13:16:56;36.05;;;18.45;;
19026;SDS011;9646;52.034;5.554;2023-03-26T13:19:25;12.25;;;4.65;;
19026;SDS011;9646;52.034;5.554;2023-03-26T13:21:57;8.98;;;3.42;;
19026;SDS011;9646;52.034;5.554;2023-03-26T13:24:31;9.80;;;4.07;;
19026;SDS011;9646;52.034;5.554;2023-03-26T13:27:04;10.30;;;4.05;;
19026;SDS011;9646;52.034;5.554;2023-03-26T13:29:35;9.38;;;4.63;;
19026;SDS011;9646;52.034;5.554;2023-03-26T13:32:07;9.45;;;4.00;;
19026;SDS011;9646;52.034;5.554;2023-03-26T13:34:41;9.25;;;3.42;;
19026;SDS011;9646;52.034;5.554;2023-03-26T13:37:13;6.38;;;2.95;;
19026;SDS011;9646;52.034;5.554;2023-03-26T13:39:47;8.25;;;2.95;;
19026;SDS011;9646;52.034;5.554;2023-03-26T13:42:23;8.50;;;3.03;;
19026;SDS011;9646;52.034;5.554;2023-03-26T13:44:59;9.15;;;3.70;;
19026;SDS011;9646;52.034;5.554;2023-03-26T13:47:27;8.25;;;2.53;;
19026;SDS011;9646;52.034;5.554;2023-03-26T13:49:56;8.27;;;2.72;;
19026;SDS011;9646;52.034;5.554;2023-03-26T13:52:25;5.32;;;2.42;;
19026;SDS011;9646;52.034;5.554;2023-03-26T13:54:56;9.88;;;3.40;;
19026;SDS011;9646;52.034;5.554;2023-03-26T13:57:28;13.77;;;5.30;;
19026;SDS011;9646;52.034;5.554;2023-03-26T13:59:59;6.72;;;3.03;;
19026;SDS011;9646;52.034;5.554;2023-03-26T14:02:32;9.23;;;3.67;;
19026;SDS011;9646;52.034;5.554;2023-03-26T14:05:00;7.30;;;3.35;;
19026;SDS011;9646;52.034;5.554;2023-03-26T14:07:31;10.73;;;4.00;;
19026;SDS011;9646;52.034;5.554;2023-03-26T14:10:02;9.00;;;3.53;;
19026;SDS011;9646;52.034;5.554;2023-03-26T14:12:39;10.95;;;4.20;;
19026;SDS011;9646;52.034;5.554;2023-03-26T14:15:14;8.95;;;3.42;;
19026;SDS011;9646;52.034;5.554;2023-03-26T14:17:44;7.63;;;2.88;;
19026;SDS011;9646;52.034;5.554;2023-03-26T14:23:07;10.52;;;3.78;;
19026;SDS011;9646;52.034;5.554;2023-03-26T14:25:52;12.75;;;5.00;;
19026;SDS011;9646;52.034;5.554;2023-03-26T14:28:28;10.38;;;4.38;;
19026;SDS011;9646;52.034;5.554;2023-03-26T14:31:00;8.88;;;3.42;;
19026;SDS011;9646;52.034;5.554;2023-03-26T14:33:44;10.50;;;4.00;;
19026;SDS011;9646;52.034;5.554;2023-03-26T14:36:17;15.00;;;4.15;;
19026;SDS011;9646;52.034;5.554;2023-03-26T14:38:59;7.78;;;2.88;;
19026;SDS011;9646;52.034;5.554;2023-03-26T14:41:34;8.32;;;3.63;;
19026;SDS011;9646;52.034;5.554;2023-03-26T14:47:09;12.38;;;4.03;;
19026;SDS011;9646;52.034;5.554;2023-03-26T14:49:45;12.63;;;4.85;;
19026;SDS011;9646;52.034;5.554;2023-03-26T14:52:18;9.95;;;3.65;;
19026;SDS011;9646;52.034;5.554;2023-03-26T14:54:47;5.90;;;2.40;;
19026;SDS011;9646;52.034;5.554;2023-03-26T14:57:23;10.80;;;3.00;;
19026;SDS011;9646;52.034;5.554;2023-03-26T15:00:04;9.55;;;2.78;;
19026;SDS011;9646;52.034;5.554;2023-03-26T15:06:02;6.38;;;2.40;;
19026;SDS011;9646;52.034;5.554;2023-03-26T15:11:27;5.35;;;2.13;;
19026;SDS011;9646;52.034;5.554;2023-03-26T15:14:25;6.55;;;2.63;;
19026;SDS011;9646;52.034;5.554;2023-03-26T15:17:10;5.75;;;2.30;;
19026;SDS011;9646;52.034;5.554;2023-03-26T15:19:51;4.60;;;2.58;;
19026;SDS011;9646;52.034;5.554;2023-03-26T15:22:46;6.88;;;2.50;;
19026;SDS011;9646;52.034;5.554;2023-03-26T15:28:12;4.43;;;2.47;;
19026;SDS011;9646;52.034;5.554;2023-03-26T15:31:06;9.48;;;3.90;;
19026;SDS011;9646;52.034;5.554;2023-03-26T15:36:31;7.78;;;2.53;;
19026;SDS011;9646;52.034;5.554;2023-03-26T15:41:52;9.60;;;2.40;;
19026;SDS011;9646;52.034;5.554;2023-03-26T15:44:29;9.45;;;2.47;;
19026;SDS011;9646;52.034;5.554;2023-03-26T15:49:59;6.00;;;2.30;;
19026;SDS011;9646;52.034;5.554;2023-03-26T15:52:29;7.75;;;2.10;;
19026;SDS011;9646;52.034;5.554;2023-03-26T15:55:00;4.38;;;2.10;;
19026;SDS011;9646;52.034;5.554;2023-03-26T15:57:29;9.38;;;2.67;;
19026;SDS011;9646;52.034;5.554;2023-03-26T16:00:04;6.20;;;2.45;;
19026;SDS011;9646;52.034;5.554;2023-03-26T16:02:40;6.00;;;2.40;;
19026;SDS011;9646;52.034;5.554;2023-03-26T16:05:23;10.75;;;3.20;;
19026;SDS011;9646;52.034;5.554;2023-03-26T16:07:55;9.70;;;2.40;;
19026;SDS011;9646;52.034;5.554;2023-03-26T16:10:27;8.43;;;2.20;;
19026;SDS011;9646;52.034;5.554;2023-03-26T16:15:37;5.20;;;1.95;;
19026;SDS011;9646;52.034;5.554;2023-03-26T16:20:51;7.90;;;2.58;;